createdAt,value
2022-08-04T00:01:21.521Z,20.00
2022-08-04T00:03:56.142Z,20.00
2022-08-04T00:06:35.497Z,20.00
2022-08-04T00:09:09.637Z,19.90
2022-08-04T00:11:41.989Z,19.90
2022-08-04T00:14:15.964Z,19.90
2022-08-04T00:16:46.921Z,19.90
2022-08-04T00:19:22.365Z,19.80
2022-08-04T00:22:00.829Z,19.80
2022-08-04T00:24:31.869Z,19.80
2022-08-04T00:26:59.781Z,19.90
2022-08-04T00:29:29.210Z,19.80
2022-08-04T00:31:58.198Z,19.80
2022-08-04T00:34:29.721Z,19.80
2022-08-04T00:36:58.944Z,19.80
2022-08-04T00:39:28.599Z,19.70
2022-08-04T00:42:29.910Z,19.70
2022-08-04T00:45:12.493Z,19.60
2022-08-04T00:47:52.882Z,19.60
2022-08-04T00:50:31.573Z,19.50
2022-08-04T00:53:09.233Z,19.50
2022-08-04T00:56:06.433Z,19.40
2022-08-04T00:58:51.020Z,19.40
2022-08-04T01:01:32.254Z,19.20
2022-08-04T01:04:11.105Z,19.20
2022-08-04T01:06:56.317Z,19.20
2022-08-04T01:09:41.967Z,19.10
2022-08-04T01:12:28.309Z,19.10
2022-08-04T01:15:06.308Z,19.10
2022-08-04T01:17:44.613Z,19.00
2022-08-04T01:20:17.049Z,18.90
2022-08-04T01:23:20.544Z,18.90
2022-08-04T01:26:43.895Z,18.90
2022-08-04T01:29:09.471Z,18.90
2022-08-04T01:31:53.357Z,18.90
2022-08-04T01:34:22.933Z,18.90
2022-08-04T01:36:59.716Z,18.90
2022-08-04T01:39:43.804Z,18.90
2022-08-04T01:42:12.905Z,18.90
2022-08-04T01:45:03.474Z,18.90
2022-08-04T01:47:31.831Z,19.00
2022-08-04T01:50:08.895Z,19.00
2022-08-04T01:52:38.458Z,19.00
2022-08-04T01:55:09.977Z,18.90
2022-08-04T01:57:42.248Z,18.90
2022-08-04T02:00:13.137Z,18.90
2022-08-04T02:02:41.390Z,18.90
2022-08-04T02:05:12.318Z,18.80
2022-08-04T02:08:02.705Z,18.80
2022-08-04T02:10:36.625Z,18.80
2022-08-04T02:13:16.659Z,18.80
2022-08-04T02:15:54.475Z,18.80
2022-08-04T02:18:25.825Z,18.70
2022-08-04T02:20:59.130Z,18.70
2022-08-04T02:23:32.394Z,18.70
2022-08-04T02:26:03.623Z,18.70
2022-08-04T02:28:36.826Z,18.70
2022-08-04T02:31:16.666Z,18.60
2022-08-04T02:33:45.917Z,18.60
2022-08-04T02:36:18.393Z,18.60
2022-08-04T02:38:56.810Z,18.60
2022-08-04T02:41:27.129Z,18.60
2022-08-04T02:43:58.712Z,18.60
2022-08-04T02:46:29.127Z,18.60
2022-08-04T02:48:57.664Z,18.60
2022-08-04T02:51:29.644Z,18.60
2022-08-04T02:53:58.849Z,18.60
2022-08-04T02:56:30.308Z,18.60
2022-08-04T02:59:01.079Z,18.50
2022-08-04T03:01:31.273Z,18.50
2022-08-04T03:04:24.958Z,18.40
2022-08-04T03:07:37.236Z,18.30
2022-08-04T03:10:23.989Z,18.30
2022-08-04T03:13:24.038Z,18.30
2022-08-04T03:16:30.252Z,18.30
2022-08-04T03:19:29.397Z,18.30
2022-08-04T03:23:06.308Z,18.30
2022-08-04T03:25:56.688Z,18.30
2022-08-04T03:29:11.921Z,18.30
2022-08-04T03:32:00.158Z,18.30
2022-08-04T03:34:45.110Z,18.30
2022-08-04T03:37:51.710Z,18.30
2022-08-04T03:40:56.302Z,18.30
2022-08-04T03:43:57.258Z,18.30
2022-08-04T03:46:53.218Z,18.30
2022-08-04T03:49:50.327Z,18.20
2022-08-04T03:52:59.839Z,18.10
2022-08-04T03:55:47.018Z,18.10
2022-08-04T03:58:35.030Z,18.10
2022-08-04T04:01:13.665Z,18.20
2022-08-04T04:04:16.725Z,18.10
2022-08-04T04:07:35.936Z,18.10
2022-08-04T04:10:40.358Z,18.20
2022-08-04T04:13:36.929Z,18.20
2022-08-04T04:16:21.329Z,18.30
2022-08-04T04:19:02.714Z,18.30
2022-08-04T04:21:58.952Z,18.30
2022-08-04T04:24:41.546Z,18.30
2022-08-04T04:27:19.684Z,18.30
2022-08-04T04:30:03.620Z,18.40
2022-08-04T04:33:00.832Z,18.30
2022-08-04T04:35:36.565Z,18.40
2022-08-04T04:38:22.515Z,18.50
2022-08-04T04:41:05.124Z,18.60
2022-08-04T04:44:04.196Z,18.60
2022-08-04T04:46:39.822Z,18.70
2022-08-04T04:49:18.254Z,18.80
2022-08-04T04:51:51.233Z,18.90
2022-08-04T04:54:27.405Z,18.90
2022-08-04T04:57:06.621Z,19.00
2022-08-04T04:59:38.132Z,19.10
2022-08-04T05:02:33.019Z,19.20
2022-08-04T05:05:34.370Z,19.30
2022-08-04T05:08:44.947Z,19.40
2022-08-04T05:11:55.197Z,19.50
2022-08-04T05:14:36.038Z,19.60
2022-08-04T05:17:18.041Z,19.70
2022-08-04T05:19:56.461Z,19.80
2022-08-04T05:22:29.926Z,19.90
2022-08-04T05:25:05.622Z,20.00
2022-08-04T05:27:40.900Z,20.10
2022-08-04T05:30:12.492Z,20.20
2022-08-04T05:32:47.750Z,20.30
2022-08-04T05:35:47.780Z,20.30
2022-08-04T05:38:12.964Z,20.50
2022-08-04T05:40:41.757Z,20.60
2022-08-04T05:43:10.577Z,20.80
2022-08-04T05:45:40.062Z,20.90
2022-08-04T05:48:09.727Z,21.00
2022-08-04T05:50:39.133Z,21.20
2022-08-04T05:53:10.613Z,21.30
2022-08-04T05:55:57.557Z,21.40
2022-08-04T05:58:27.836Z,21.50
2022-08-04T06:00:58.119Z,21.70
2022-08-04T06:03:28.247Z,21.80
2022-08-04T06:05:58.053Z,21.80
2022-08-04T06:08:26.329Z,22.00
2022-08-04T06:10:57.962Z,22.10
2022-08-04T06:13:48.743Z,22.20
2022-08-04T06:16:29.230Z,22.40
2022-08-04T06:20:03.171Z,22.50
2022-08-04T06:21:51.989Z,22.70
2022-08-04T06:24:21.842Z,22.80
2022-08-04T06:26:51.487Z,22.90
2022-08-04T06:29:24.884Z,23.00
2022-08-04T06:32:29.454Z,23.20
2022-08-04T06:34:53.114Z,23.30
2022-08-04T06:37:41.350Z,23.50
2022-08-04T06:40:30.982Z,23.60
2022-08-04T06:43:00.493Z,23.70
2022-08-04T06:45:28.785Z,23.80
2022-08-04T06:47:59.295Z,24.00
2022-08-04T06:51:25.896Z,24.10
2022-08-04T06:53:16.110Z,24.30
2022-08-04T06:55:46.094Z,24.40
2022-08-04T06:58:15.848Z,24.60
2022-08-04T07:00:46.877Z,24.70
2022-08-04T07:03:19.986Z,24.80
2022-08-04T07:05:48.905Z,25.00
2022-08-04T07:08:17.322Z,25.10
2022-08-04T07:10:46.370Z,25.20
2022-08-04T07:13:15.690Z,25.40
2022-08-04T07:15:46.811Z,25.50
2022-08-04T07:18:16.234Z,25.70
2022-08-04T07:20:44.806Z,25.80
2022-08-04T07:23:17.486Z,25.90
2022-08-04T07:26:11.084Z,26.00
2022-08-04T07:28:41.995Z,26.10
2022-08-04T07:31:32.958Z,26.30
2022-08-04T07:34:17.372Z,26.40
2022-08-04T07:36:55.005Z,26.60
2022-08-04T07:39:28.869Z,26.70
2022-08-04T07:41:58.552Z,26.90
2022-08-04T07:44:26.789Z,27.00
2022-08-04T07:46:55.156Z,27.10
2022-08-04T07:49:56.571Z,27.20
2022-08-04T07:52:15.181Z,27.30
2022-08-04T07:54:44.721Z,27.40
2022-08-04T07:57:20.714Z,27.50
2022-08-04T08:00:00.751Z,27.70
2022-08-04T08:02:29.335Z,27.90
2022-08-04T08:04:59.233Z,28.00
2022-08-04T08:07:27.182Z,28.10
2022-08-04T08:09:55.139Z,28.20
2022-08-04T08:12:37.865Z,28.20
2022-08-04T08:15:15.782Z,28.30
2022-08-04T08:17:59.743Z,28.40
2022-08-04T08:20:33.495Z,28.60
2022-08-04T08:23:03.286Z,28.80
2022-08-04T08:25:32.703Z,29.00
2022-08-04T08:28:01.129Z,29.10
2022-08-04T08:30:31.956Z,29.40
2022-08-04T08:33:05.446Z,29.50
2022-08-04T08:35:53.277Z,29.70
2022-08-04T08:38:34.928Z,29.80
2022-08-04T08:41:24.593Z,29.90
2022-08-04T08:44:19.055Z,30.10
2022-08-04T08:47:10.222Z,30.20
2022-08-04T08:50:01.922Z,30.30
2022-08-04T08:53:02.713Z,30.50
2022-08-04T08:55:50.049Z,30.70
2022-08-04T08:58:50.793Z,30.80
2022-08-04T09:01:41.991Z,31.00
2022-08-04T09:04:48.961Z,30.90
2022-08-04T09:07:38.785Z,30.90
2022-08-04T09:10:15.209Z,30.90
2022-08-04T09:12:51.732Z,31.00
2022-08-04T09:15:28.605Z,31.10
2022-08-04T09:18:03.137Z,31.20
2022-08-04T09:20:39.253Z,31.50
2022-08-04T09:23:19.761Z,31.60
2022-08-04T09:25:53.462Z,31.80
2022-08-04T09:28:50.844Z,31.80
2022-08-04T09:31:17.313Z,31.80
2022-08-04T09:33:56.798Z,31.80
2022-08-04T09:36:31.173Z,31.80
2022-08-04T09:39:11.243Z,31.80
2022-08-04T09:41:52.339Z,32.00
2022-08-04T09:44:48.968Z,32.00
2022-08-04T09:47:25.991Z,32.20
2022-08-04T09:50:19.602Z,32.30
2022-08-04T09:52:57.297Z,32.50
2022-08-04T09:55:53.675Z,32.70
2022-08-04T09:58:40.176Z,32.80
2022-08-04T10:01:11.322Z,32.90
2022-08-04T10:03:43.729Z,32.90
2022-08-04T10:06:34.141Z,32.90
2022-08-04T10:09:12.509Z,33.10
2022-08-04T10:11:56.874Z,33.20
2022-08-04T10:14:38.881Z,33.30
2022-08-04T10:17:21.331Z,33.50
2022-08-04T10:19:57.378Z,33.60
2022-08-04T10:22:44.796Z,33.70
2022-08-04T10:25:37.601Z,33.70
2022-08-04T10:28:24.278Z,33.60
2022-08-04T10:30:58.785Z,33.70
2022-08-04T10:33:32.122Z,33.80
2022-08-04T10:36:04.857Z,33.90
2022-08-04T10:38:40.576Z,33.80
2022-08-04T10:41:14.073Z,33.70
2022-08-04T10:43:54.103Z,33.60
2022-08-04T10:46:27.994Z,33.60
2022-08-04T10:48:58.945Z,33.70
2022-08-04T10:51:57.753Z,33.70
2022-08-04T10:54:28.386Z,33.80
2022-08-04T10:57:00.286Z,33.80
2022-08-04T10:59:36.074Z,33.80
2022-08-04T11:02:19.834Z,34.00
2022-08-04T11:04:51.170Z,34.10
2022-08-04T11:07:20.483Z,34.10
2022-08-04T11:09:49.013Z,34.20
2022-08-04T11:12:20.606Z,34.30
2022-08-04T11:14:56.620Z,34.30
2022-08-04T11:17:29.058Z,34.40
2022-08-04T11:20:33.063Z,34.50
2022-08-04T11:23:01.692Z,34.50
2022-08-04T11:25:33.813Z,34.70
2022-08-04T11:28:07.481Z,34.70
2022-08-04T11:30:41.512Z,34.80
2022-08-04T11:33:19.176Z,34.80
2022-08-04T11:35:53.372Z,34.90
2022-08-04T11:38:29.057Z,34.90
2022-08-04T11:41:02.519Z,34.90
2022-08-04T11:44:00.737Z,35.00
2022-08-04T11:46:36.873Z,35.00
2022-08-04T11:49:08.900Z,35.00
2022-08-04T11:51:38.211Z,35.10
2022-08-04T11:54:06.377Z,35.10
2022-08-04T11:56:36.582Z,35.20
2022-08-04T11:59:08.466Z,35.20
2022-08-04T12:01:51.826Z,35.30
2022-08-04T12:04:28.801Z,35.30
2022-08-04T12:07:29.932Z,35.40
2022-08-04T12:10:01.427Z,35.40
2022-08-04T12:12:38.843Z,35.40
2022-08-04T12:15:16.363Z,35.30
2022-08-04T12:17:53.891Z,35.20
2022-08-04T12:20:38.181Z,35.10
2022-08-04T12:23:16.722Z,35.20
2022-08-04T12:25:48.798Z,35.30
2022-08-04T12:28:24.157Z,35.40
2022-08-04T12:31:03.466Z,35.40
2022-08-04T12:34:04.384Z,35.40
2022-08-04T12:36:40.347Z,35.30
2022-08-04T12:39:13.570Z,35.20
2022-08-04T12:41:46.470Z,35.30
2022-08-04T12:44:33.259Z,35.40
2022-08-04T12:47:27.402Z,35.50
2022-08-04T12:50:01.744Z,35.70
2022-08-04T12:52:59.581Z,35.80
2022-08-04T12:55:23.850Z,35.90
2022-08-04T12:57:53.294Z,35.90
2022-08-04T13:00:29.782Z,35.80
2022-08-04T13:03:10.013Z,35.70
2022-08-04T13:05:41.669Z,35.70
2022-08-04T13:08:11.577Z,35.70
2022-08-04T13:10:42.334Z,35.70
2022-08-04T13:13:17.013Z,35.70
2022-08-04T13:15:56.555Z,35.70
2022-08-04T13:18:29.939Z,35.80
2022-08-04T13:21:19.789Z,35.80
2022-08-04T13:24:10.163Z,35.90
2022-08-04T13:26:54.571Z,35.90
2022-08-04T13:29:59.306Z,35.80
2022-08-04T13:32:20.219Z,35.70
2022-08-04T13:34:52.702Z,35.50
2022-08-04T13:37:27.221Z,35.50
2022-08-04T13:39:56.817Z,35.50
2022-08-04T13:42:27.302Z,35.50
2022-08-04T13:44:58.000Z,35.60
2022-08-04T13:47:30.046Z,35.50
2022-08-04T13:50:17.456Z,35.60
2022-08-04T13:52:47.717Z,35.50
2022-08-04T13:55:24.824Z,35.50
2022-08-04T13:57:58.440Z,35.60
2022-08-04T14:00:37.707Z,35.60
2022-08-04T14:03:23.356Z,35.50
2022-08-04T14:06:16.986Z,35.50
2022-08-04T14:08:52.553Z,35.40
2022-08-04T14:16:00.986Z,35.40
2022-08-04T14:18:32.961Z,35.40
2022-08-04T14:21:06.909Z,35.40
2022-08-04T14:23:47.706Z,35.40
2022-08-04T14:26:32.789Z,35.40
2022-08-04T14:29:26.570Z,35.30
2022-08-04T14:32:05.954Z,35.30
2022-08-04T14:34:42.193Z,35.30
2022-08-04T14:37:18.422Z,35.30
2022-08-04T14:40:07.874Z,35.30
2022-08-04T14:42:53.985Z,35.30
2022-08-04T14:45:32.586Z,35.30
2022-08-04T14:48:03.135Z,35.20
2022-08-04T14:50:35.841Z,35.10
2022-08-04T14:53:05.710Z,35.10
2022-08-04T14:55:33.930Z,35.10
2022-08-04T14:58:36.399Z,35.20
2022-08-04T15:00:53.473Z,35.20
2022-08-04T15:03:22.685Z,35.10
2022-08-04T15:06:00.457Z,35.10
2022-08-04T15:08:32.243Z,34.90
2022-08-04T15:11:02.443Z,34.90
2022-08-04T15:13:33.127Z,34.90
2022-08-04T15:16:07.400Z,35.00
2022-08-04T15:18:37.567Z,34.90
2022-08-04T15:21:07.707Z,34.80
2022-08-04T15:23:39.477Z,34.80
2022-08-04T15:26:11.718Z,34.70
2022-08-04T15:28:43.298Z,34.70
2022-08-04T15:32:05.774Z,34.70
2022-08-04T15:34:00.108Z,34.70
2022-08-04T15:36:35.667Z,34.60
2022-08-04T15:39:13.278Z,34.60
2022-08-04T15:41:55.315Z,34.50
2022-08-04T15:45:05.001Z,34.50
2022-08-04T15:47:33.021Z,34.40
2022-08-04T15:50:09.698Z,34.40
2022-08-04T16:02:11.133Z,34.30
2022-08-04T16:09:01.331Z,34.20
2022-08-04T16:11:40.974Z,34.10
2022-08-04T16:14:09.804Z,34.10
2022-08-04T16:20:38.841Z,34.10
2022-08-04T16:31:35.955Z,33.90
2022-08-04T16:34:04.393Z,33.90
2022-08-04T16:45:14.982Z,33.70
2022-08-04T16:48:08.657Z,33.70
2022-08-04T16:50:48.493Z,33.60
2022-08-04T16:53:52.971Z,33.60
2022-08-04T16:56:06.742Z,33.50
2022-08-04T16:58:36.768Z,33.50
2022-08-04T17:01:10.141Z,33.40
2022-08-04T17:03:57.406Z,33.40
2022-08-04T17:06:35.343Z,33.20
2022-08-04T17:09:06.497Z,33.20
2022-08-04T17:11:34.377Z,33.10
2022-08-04T17:14:05.842Z,33.00
2022-08-04T17:16:35.699Z,33.00
2022-08-04T17:19:06.336Z,32.90
2022-08-04T17:21:36.658Z,32.80
2022-08-04T17:24:14.183Z,32.70
2022-08-04T17:26:51.813Z,32.70
2022-08-04T17:29:22.602Z,32.70
2022-08-04T17:31:53.307Z,32.60
2022-08-04T17:34:26.469Z,32.50
2022-08-04T17:37:03.093Z,32.50
2022-08-04T17:39:42.452Z,32.40
2022-08-04T17:42:10.355Z,32.40
2022-08-04T17:44:39.291Z,32.30
2022-08-04T17:47:17.301Z,32.20
2022-08-04T17:49:53.205Z,32.20
2022-08-04T17:52:39.819Z,32.10
2022-08-04T17:55:16.340Z,32.00
2022-08-04T17:57:52.648Z,31.90
2022-08-04T18:00:20.765Z,31.90
2022-08-04T18:02:54.914Z,31.80
2022-08-04T18:08:39.100Z,31.70
2022-08-04T18:11:06.708Z,31.50
2022-08-04T18:13:42.892Z,31.40
2022-08-04T18:16:21.932Z,31.30
2022-08-04T18:19:09.281Z,31.20
2022-08-04T18:21:46.692Z,31.10
2022-08-04T18:24:34.676Z,31.00
2022-08-04T18:27:14.610Z,31.00
2022-08-04T18:30:14.961Z,30.90
2022-08-04T18:32:33.263Z,30.90
2022-08-04T18:35:05.569Z,30.70
2022-08-04T18:38:06.855Z,30.60
2022-08-04T18:40:32.276Z,30.50
2022-08-04T18:47:23.496Z,30.30
2022-08-04T18:52:45.037Z,30.00
2022-08-04T18:55:55.778Z,29.80
2022-08-04T18:58:07.068Z,29.70
2022-08-04T19:00:35.704Z,29.50
2022-08-04T19:03:04.158Z,29.30
2022-08-04T19:05:41.974Z,29.20
2022-08-04T19:08:33.494Z,29.10
2022-08-04T19:11:00.274Z,28.80
2022-08-04T19:13:30.042Z,28.70
2022-08-04T19:16:03.849Z,28.50
2022-08-04T19:18:44.468Z,28.30
2022-08-04T19:21:12.349Z,28.20
2022-08-04T19:24:28.060Z,28.10
2022-08-04T19:26:29.358Z,27.90
2022-08-04T19:29:00.002Z,27.80
2022-08-04T19:31:40.160Z,27.70
2022-08-04T19:34:10.055Z,27.50
2022-08-04T19:36:39.113Z,27.40
2022-08-04T19:39:15.267Z,27.30
2022-08-04T19:42:05.946Z,27.10
2022-08-04T19:44:32.053Z,27.10
2022-08-04T19:47:02.475Z,27.00
2022-08-04T19:50:04.775Z,26.90
2022-08-04T19:52:36.813Z,26.80
2022-08-04T19:55:10.524Z,26.70
2022-08-04T19:57:43.923Z,26.70
2022-08-04T20:00:17.492Z,26.70
2022-08-04T20:03:01.641Z,26.60
2022-08-04T20:05:52.630Z,26.50
2022-08-04T20:08:18.438Z,26.40
2022-08-04T20:10:51.367Z,26.30
2022-08-04T20:13:20.357Z,26.10
2022-08-04T20:15:57.260Z,26.10
2022-08-04T20:18:35.861Z,26.10
2022-08-04T20:21:19.474Z,26.10
2022-08-04T20:23:52.741Z,26.10
2022-08-04T20:26:22.077Z,26.00
2022-08-04T20:28:51.810Z,26.00
2022-08-04T20:31:20.701Z,26.00
2022-08-04T20:33:54.943Z,25.90
2022-08-04T20:36:23.353Z,25.80
2022-08-04T20:38:53.016Z,25.70
2022-08-04T20:41:22.666Z,25.60
2022-08-04T20:43:50.700Z,25.50
2022-08-04T20:46:29.463Z,25.40
2022-08-04T20:48:58.221Z,25.30
2022-08-04T20:51:32.086Z,25.20
2022-08-04T20:54:02.208Z,25.10
2022-08-04T20:56:31.803Z,25.00
2022-08-04T20:59:00.298Z,24.90
2022-08-04T21:01:29.972Z,24.80
2022-08-04T21:07:06.422Z,24.70
2022-08-04T21:09:36.950Z,24.60
2022-08-04T21:12:26.638Z,24.60
2022-08-04T21:14:57.715Z,24.50
2022-08-04T21:17:58.206Z,24.50
2022-08-04T21:20:14.075Z,24.40
2022-08-04T21:22:41.962Z,24.40
2022-08-04T21:25:16.009Z,24.20
2022-08-04T21:27:45.781Z,24.20
2022-08-04T21:30:25.162Z,24.20
2022-08-04T21:35:42.278Z,24.00
2022-08-04T21:38:16.599Z,24.00
2022-08-04T21:40:53.291Z,23.90
2022-08-04T21:43:27.341Z,23.80
2022-08-04T21:45:56.018Z,23.80
2022-08-04T21:48:27.420Z,23.70
2022-08-04T21:50:55.922Z,23.70
2022-08-04T21:53:27.829Z,23.70
2022-08-04T21:56:07.007Z,23.60
2022-08-04T21:58:36.918Z,23.60
2022-08-04T22:01:12.901Z,23.50
2022-08-04T22:03:53.560Z,23.40
2022-08-04T22:06:28.432Z,23.40
2022-08-04T22:08:57.591Z,23.30
2022-08-04T22:11:43.837Z,23.30
2022-08-04T22:14:27.236Z,23.30
2022-08-04T22:16:57.798Z,23.20
2022-08-04T22:19:40.882Z,23.20
2022-08-04T22:22:26.031Z,23.20
2022-08-04T22:24:58.640Z,23.20
2022-08-04T22:27:47.654Z,23.20
2022-08-04T22:30:18.003Z,23.20
2022-08-04T22:32:46.594Z,23.10
2022-08-04T22:35:36.230Z,23.00
2022-08-04T22:38:06.372Z,23.00
2022-08-04T22:40:38.223Z,23.00
2022-08-04T22:43:31.151Z,22.90
2022-08-04T22:45:55.286Z,22.80
2022-08-04T22:48:23.790Z,22.80
2022-08-04T22:50:56.049Z,22.80
2022-08-04T22:53:24.161Z,22.60
2022-08-04T22:56:07.314Z,22.60
2022-08-04T22:58:44.744Z,22.50
2022-08-04T23:01:15.673Z,22.40
2022-08-04T23:03:54.938Z,22.30
2022-08-04T23:06:25.198Z,22.20
2022-08-04T23:08:53.723Z,22.10
2022-08-04T23:11:21.639Z,22.10
2022-08-04T23:13:49.517Z,22.10
2022-08-04T23:16:19.891Z,22.10
2022-08-04T23:18:49.075Z,22.10
2022-08-04T23:21:17.336Z,22.00
2022-08-04T23:24:00.780Z,21.90
2022-08-04T23:26:31.488Z,21.90
2022-08-04T23:28:59.814Z,21.90
2022-08-04T23:31:40.399Z,21.90
2022-08-04T23:34:09.489Z,21.90
2022-08-04T23:36:40.588Z,21.90
2022-08-04T23:39:08.551Z,22.00
2022-08-04T23:41:54.669Z,22.00
2022-08-04T23:44:27.164Z,21.90
2022-08-04T23:47:02.075Z,21.90
2022-08-04T23:49:43.439Z,22.00
2022-08-04T23:52:27.806Z,21.80
2022-08-04T23:54:59.144Z,21.80
2022-08-04T23:58:02.224Z,21.80
